ADDS METAR Data INFO
IDs: Format: Raw Decoded Include TAF

Data at: 1353 UTC 26 May 2018

KDRT 261253Z AUTO 14008KT 10SM CLR 24/21 A2983 RMK AO2 SLP084 T02440206
KDRT 261153Z AUTO 14008KT 10SM CLR 24/21 A2983 RMK AO2 SLP083 T02440206 10283 20233 50001
KDRT 261053Z AUTO 09010KT 10SM CLR 24/19 A2984 RMK AO2 SLP086 T02390189
KDRT 260953Z AUTO 09006KT 10SM CLR 24/19 A2983 RMK AO2 SLP080 T02440189
KDRT 260853Z AUTO 11005KT 10SM CLR 26/19 A2983 RMK AO2 SLP081 T02610189 58016
KDRT 260753Z AUTO 14006KT 10SM CLR 27/18 A2984 RMK AO2 SLP085 T02720183
KDRT 260653Z AUTO 11008KT 10SM CLR 28/18 A2986 RMK AO2 SLP094 T02780183
KDRT 260553Z AUTO 10010KT 10SM CLR 28/19 A2987 RMK AO2 SLP097 T02830189 10372 20283 403830228 51016
KDRT 260453Z AUTO 10009KT 10SM CLR 29/19 A2987 RMK AO2 SLP095 T02940194
KDRT 260353Z AUTO 10007KT 10SM CLR 31/19 A2985 RMK AO2 SLP089 T03060194
KDRT 260253Z AUTO 10009KT 10SM CLR 32/19 A2983 RMK AO2 SLP082 T03220194 53009
KDRT 260153Z AUTO 11005KT 10SM CLR 34/17 A2980 RMK AO2 SLP073 T03390167
KDRT 260053Z AUTO 15008KT 10SM CLR 36/17 A2980 RMK AO2 SLP071 T03610167
KDRT 252353Z AUTO 15008KT 10SM CLR 37/16 A2980 RMK AO2 SLP072 T03670161 10383 20333 56018
KDRT 252253Z AUTO 17007KT 10SM CLR 38/15 A2980 RMK AO2 SLP072 T03830150
KDRT 252153Z AUTO 15009G15KT 110V170 10SM CLR 38/17 A2982 RMK AO2 SLP079 T03780172
KDRT 252053Z AUTO 14012G19KT 10SM CLR 37/18 A2985 RMK AO2 SLP090 T03720183 56028
KDRT 251953Z AUTO 16007KT 120V190 10SM CLR 36/19 A2987 RMK AO2 SLP097 T03610189
KDRT 251853Z AUTO 11011G19KT 10SM CLR 36/20 A2991 RMK AO2 SLP109 T03560200
KDRT 251753Z AUTO 17008KT 10SM CLR 33/21 A2994 RMK AO2 SLP120 T03330211 10333 20228 58014
KDRT 251653Z AUTO 15006KT 10SM CLR 31/22 A2996 RMK AO2 SLP127 T03110222
KDRT 251553Z AUTO 15010KT 10SM CLR 29/22 A2998 RMK AO2 SLP133 T02890222
KDRT 251453Z AUTO 15010KT 10SM FEW019 27/22 A2998 RMK AO2 SLP135 T02720222 51008
KDRT 251353Z AUTO 12009KT 10SM FEW017 26/22 A2998 RMK AO2 SLP135 T02560217
KDRT 251253Z AUTO 11008KT 10SM CLR 24/21 A2997 RMK AO2 SLP131 T02390211
KDRT 251153Z AUTO 10007KT 10SM FEW023 23/21 A2996 RMK AO2 SLP126 T02280211 10272 20228 53008
KDRT 251053Z AUTO 10005KT 10SM CLR 23/21 A2994 RMK AO2 SLP121 T02330211
KDRT 250953Z AUTO 11006KT 10SM CLR 24/21 A2994 RMK AO2 SLP120 T02440206
KDRT 250853Z AUTO 10009KT 10SM CLR 25/21 A2993 RMK AO2 SLP118 T02500206 56015
KDRT 250753Z AUTO 09008KT 10SM CLR 26/20 A2994 RMK AO2 SLP122 T02560200
KDRT 250653Z AUTO 11010KT 10SM CLR 27/19 A2995 RMK AO2 SLP125 T02670194
KDRT 250553Z AUTO 09006KT 10SM CLR 27/19 A2998 RMK AO2 SLP133 T02720194 10344 20267 403500239 50004
KDRT 250453Z AUTO 09007KT 10SM CLR 28/19 A2998 RMK AO2 SLP136 T02780194
KDRT 250353Z AUTO 09010KT 10SM CLR 29/19 A2996 RMK AO2 SLP129 T02890194
KDRT 250253Z AUTO 09009KT 10SM CLR 30/19 A2997 RMK AO2 SLP130 T03000189 53018